PABT/BTT METAR and TAF weather

Enter ICAO airport designator
Station Type Date Time Source
PABT METAR 2021/07/28 19:53 UTC NOAA

PABT 281953Z 20006KT 5SM -RA BR SCT008 OVC012 12/11 A2990 RMK AO2 SLP133 P0002 T01220111


Station Type Date Time Source
PABT Decoded METAR 2021/07/28 19:53 UTC NOAA

BETTLES AIRPORT, AK, United States (PABT) 66-54N 151-31W 196M
Jul 28, 2021 - 03:53 PM EDT / 2021.07.28 1953 UTC
Wind: from the SSW (200 degrees) at 7 MPH (6 KT):0
Visibility: 5 mile(s):0
Sky conditions: overcast
Weather: light rain; mist
Precipitation last hour: 0.02 inches
Temperature: 54.0 F (12.2 C)
Dew Point: 52.0 F (11.1 C)
Relative Humidity: 92%
Pressure (altimeter): 29.9 in. Hg (1012 hPa)
ob: PABT 281953Z 20006KT 5SM -RA BR SCT008 OVC012 12/11 A2990 RMK AO2 SLP133 P0002 T01220111
cycle: 20

Station Type Date Time Source
PABT TAF 2021/07/28 18:42 UTC NOAA

TAF PABT 281741Z 2818/2918 20005KT 3SM -RA BR SCT007 OVC012
FM282200 19006KT 5SM -RA BR BKN015 OVC025

Example: see airport list